Time;durP1;ratioP1;P1;durP2;ratioP2;P2;SDS_P1;SDS_P2;PMS_P1;PMS_P2;Temp;Humidity;BMP_temperature;BMP_pressure;BME280_temperature;BME280_humidity;BME280_pressure;Samples;Min_cycle;Max_cycle;Signal;HPM_P1;HPM_P2
2021/08/10 00:01:13;;;;;;;6.60;2.90;;;;;;;15.42;70.82;99113.06;3608436;39;20412;-69
2021/08/10 00:03:42;;;;;;;5.95;3.33;;;;;;;15.34;70.25;99106.97;3608328;39;20072;-69
2021/08/10 00:06:10;;;;;;;7.05;2.83;;;;;;;15.28;70.47;99118.50;3609081;39;20051;-69
2021/08/10 00:08:37;;;;;;;4.03;3.05;;;;;;;15.24;70.86;99113.81;3609649;39;20046;-69
2021/08/10 00:11:07;;;;;;;5.78;3.33;;;;;;;15.16;71.33;99112.22;3608605;39;20083;-69
2021/08/10 00:13:35;;;;;;;4.43;2.40;;;;;;;15.11;71.21;99118.19;3610811;39;20381;-69
2021/08/10 00:16:03;;;;;;;5.15;2.53;;;;;;;15.10;71.79;99118.38;3611064;39;20051;-69
2021/08/10 00:18:32;;;;;;;6.38;2.97;;;;;;;15.08;71.93;99113.28;3610793;39;20051;-69
2021/08/10 00:21:00;;;;;;;8.65;3.80;;;;;;;15.13;71.89;99112.63;3610556;39;20064;-69
2021/08/10 00:23:27;;;;;;;6.63;2.78;;;;;;;15.20;71.52;99104.63;3609289;39;20050;-69
2021/08/10 00:25:55;;;;;;;6.00;2.50;;;;;;;15.22;71.36;99102.53;3608709;39;20051;-69
2021/08/10 00:28:23;;;;;;;2.65;2.13;;;;;;;15.18;71.79;99094.16;3609099;39;20075;-68
2021/08/10 00:30:52;;;;;;;5.13;2.42;;;;;;;15.24;71.27;99095.16;3608543;39;20087;-68
2021/08/10 00:33:20;;;;;;;5.38;2.55;;;;;;;15.28;71.63;99094.53;3608644;39;20043;-69
2021/08/10 00:35:49;;;;;;;10.70;2.50;;;;;;;15.36;71.54;99098.78;3610100;39;20349;-68
2021/08/10 00:38:20;;;;;;;4.82;2.50;;;;;;;15.40;71.14;99099.16;3609335;39;20106;-69
2021/08/10 00:40:53;;;;;;;3.38;2.90;;;;;;;15.29;71.29;99092.66;3608989;39;20028;-70
2021/08/10 00:43:32;;;;;;;6.35;2.55;;;;;;;15.19;71.65;99087.03;3609756;39;20059;-70
2021/08/10 00:46:05;;;;;;;7.75;3.08;;;;;;;15.24;71.64;99087.19;3608720;39;20051;-69
2021/08/10 00:48:34;;;;;;;7.25;2.85;;;;;;;15.25;71.49;99084.28;3608358;39;20044;-70
2021/08/10 00:51:08;;;;;;;7.07;2.92;;;;;;;15.21;71.27;99082.28;3608779;39;20324;-70
2021/08/10 00:53:37;;;;;;;4.25;2.88;;;;;;;15.20;71.13;99080.66;3608685;39;20069;-69
2021/08/10 00:56:08;;;;;;;3.45;3.08;;;;;;;15.24;71.48;99081.84;3608762;39;20031;-69
2021/08/10 00:58:38;;;;;;;6.68;2.60;;;;;;;15.27;70.82;99078.75;3608376;39;20062;-69
2021/08/10 01:01:07;;;;;;;6.43;3.50;;;;;;;15.24;71.34;99084.53;3608265;39;20389;-69
2021/08/10 01:03:35;;;;;;;4.60;2.85;;;;;;;15.21;70.96;99076.94;3608503;39;20323;-68
2021/08/10 01:06:14;;;;;;;4.55;2.92;;;;;;;15.24;71.79;99072.00;3608770;39;20399;-69
2021/08/10 01:08:53;;;;;;;5.03;2.97;;;;;;;15.30;71.33;99071.13;3608493;39;20055;-69
2021/08/10 01:11:32;;;;;;;6.60;2.92;;;;;;;15.39;70.69;99069.03;3608168;39;20047;-69
2021/08/10 01:14:11;;;;;;;7.20;3.63;;;;;;;15.40;71.07;99070.66;3608786;39;20047;-69
2021/08/10 01:16:43;;;;;;;4.85;2.55;;;;;;;15.38;70.64;99080.72;3609511;39;20054;-69
2021/08/10 01:19:37;;;;;;;5.07;2.83;;;;;;;15.44;71.18;99079.03;3608521;39;20550;-68
2021/08/10 01:22:08;;;;;;;4.60;2.75;;;;;;;15.50;70.95;99076.31;3608651;39;20075;-70
2021/08/10 01:24:41;;;;;;;5.95;2.97;;;;;;;15.59;70.98;99085.69;3608783;39;20059;-68
2021/08/10 01:27:31;;;;;;;6.65;2.90;;;;;;;15.71;70.75;99083.13;3608399;39;20393;-69
2021/08/10 01:30:05;;;;;;;3.85;2.60;;;;;;;15.72;69.86;99073.31;3608333;39;20132;-69
2021/08/10 01:32:37;;;;;;;6.38;2.30;;;;;;;15.67;69.74;99071.28;3608419;39;20051;-69
2021/08/10 01:35:07;;;;;;;;;;;;;;;15.59;69.74;99074.19;3609184;39;20405;-69
2021/08/10 01:37:38;;;;;;;4.05;2.88;;;;;;;15.53;70.63;99069.75;3608173;39;19939;-69
2021/08/10 01:40:09;;;;;;;3.45;3.10;;;;;;;15.46;70.75;99074.31;3608063;39;20400;-70
2021/08/10 01:42:43;;;;;;;5.38;2.88;;;;;;;15.38;70.95;99063.91;3609310;39;20397;-70
2021/08/10 01:45:13;;;;;;;5.45;3.10;;;;;;;15.29;70.71;99064.19;3608393;39;20047;-69
2021/08/10 01:47:47;;;;;;;5.93;3.17;;;;;;;15.30;71.21;99063.16;3608309;39;20044;-69
2021/08/10 01:50:19;;;;;;;5.90;3.17;;;;;;;15.29;71.11;99068.69;3608204;39;20043;-70
2021/08/10 01:53:14;;;;;;;7.03;2.92;;;;;;;15.32;71.09;99057.63;3607699;39;20124;-69
2021/08/10 01:55:44;;;;;;;7.32;2.90;;;;;;;15.29;71.22;99050.88;3608754;39;20109;-70
2021/08/10 01:58:21;;;;;;;5.15;2.78;;;;;;;15.29;71.29;99053.53;3608312;39;20050;-68
2021/08/10 02:00:54;;;;;;;5.18;2.53;;;;;;;15.31;71.43;99053.34;3608270;39;20035;-69
2021/08/10 02:03:26;;;;;;;4.07;2.65;;;;;;;15.31;70.92;99053.34;3608351;39;20164;-70
2021/08/10 02:06:08;;;;;;;5.82;2.78;;;;;;;15.31;70.90;99056.81;3608442;39;20036;-70
2021/08/10 02:08:40;;;;;;;5.72;3.05;;;;;;;15.25;71.34;99059.50;3608331;39;20055;-70
2021/08/10 02:11:12;;;;;;;5.90;3.03;;;;;;;15.24;71.50;99061.38;3608652;39;20051;-69
2021/08/10 02:13:40;;;;;;;4.47;2.78;;;;;;;15.22;71.65;99063.41;3608391;39;20423;-68
2021/08/10 02:16:19;;;;;;;6.38;2.92;;;;;;;15.26;71.24;99064.59;3608608;39;20047;-68
2021/08/10 02:18:50;;;;;;;5.35;2.70;;;;;;;15.24;71.48;99056.03;3608304;39;20055;-68
2021/08/10 02:21:28;;;;;;;5.63;3.00;;;;;;;15.29;71.35;99063.38;3608178;39;20057;-68
2021/08/10 02:24:04;;;;;;;5.38;2.78;;;;;;;15.26;71.34;99063.78;3608004;39;20055;-68
2021/08/10 02:26:36;;;;;;;5.78;2.72;;;;;;;15.24;71.45;99061.38;3608099;39;20066;-69
2021/08/10 02:29:05;;;;;;;3.83;2.63;;;;;;;15.35;71.88;99054.53;3607607;39;20048;-69
2021/08/10 02:31:34;;;;;;;4.10;2.45;;;;;;;15.35;71.60;99057.19;3608071;39;20397;-69
2021/08/10 02:34:03;;;;;;;3.92;2.50;;;;;;;15.36;71.04;99053.50;3607959;39;20076;-68
2021/08/10 02:36:33;;;;;;;4.93;2.85;;;;;;;15.29;71.68;99061.53;3607930;39;20093;-69
2021/08/10 02:39:06;;;;;;;4.25;2.80;;;;;;;15.30;71.51;99062.34;3607840;39;20081;-68
2021/08/10 02:41:37;;;;;;;;;;;;;;;15.38;71.42;99062.06;3609081;39;20116;-69
2021/08/10 02:44:07;;;;;;;4.65;2.80;;;;;;;15.42;70.98;99055.28;3611927;39;19938;-69
2021/08/10 02:46:35;;;;;;;6.07;3.20;;;;;;;15.42;71.22;99060.59;3612255;39;20060;-69
2021/08/10 02:49:08;;;;;;;6.40;2.72;;;;;;;15.35;71.11;99052.69;3609459;39;20048;-69
2021/08/10 02:51:36;;;;;;;6.40;3.00;;;;;;;15.27;71.17;99057.47;3608182;39;20050;-68
2021/08/10 02:54:05;;;;;;;10.20;3.45;;;;;;;15.20;71.32;99062.00;3608699;39;20055;-67
2021/08/10 02:56:37;;;;;;;6.50;3.38;;;;;;;15.16;71.18;99058.16;3608980;39;20127;-68
2021/08/10 02:59:11;;;;;;;6.65;2.92;;;;;;;15.13;71.75;99055.91;3608813;39;20492;-68
2021/08/10 03:01:42;;;;;;;;;;;;;;;15.10;71.65;99062.47;3609788;39;20036;-69
2021/08/10 03:04:12;;;;;;;3.85;2.25;;;;;;;15.13;72.06;99051.41;3609439;39;19932;-67
2021/08/10 03:06:43;;;;;;;4.15;2.78;;;;;;;15.14;71.89;99058.34;3608758;39;20374;-67
2021/08/10 03:09:15;;;;;;;4.63;2.67;;;;;;;15.16;71.75;99058.16;3608405;39;20043;-67
2021/08/10 03:11:49;;;;;;;6.53;2.58;;;;;;;15.14;72.18;99069.00;3609805;39;20063;-68
2021/08/10 03:14:17;;;;;;;5.25;2.75;;;;;;;15.20;71.86;99062.00;3609082;39;20024;-68
2021/08/10 03:16:48;;;;;;;4.28;2.83;;;;;;;15.18;71.74;99069.38;3608486;39;20104;-68
2021/08/10 03:19:18;;;;;;;3.17;2.28;;;;;;;15.14;71.80;99076.16;3609396;39;20047;-68
2021/08/10 03:21:48;;;;;;;4.47;2.67;;;;;;;15.06;71.62;99077.25;3608504;39;20079;-68
2021/08/10 03:24:18;;;;;;;6.13;2.80;;;;;;;15.05;72.01;99080.94;3608606;39;20052;-68
2021/08/10 03:26:48;;;;;;;5.35;2.75;;;;;;;15.09;71.72;99082.16;3609291;39;20050;-67
2021/08/10 03:29:16;;;;;;;4.70;2.80;;;;;;;15.12;71.88;99079.06;3608089;39;20427;-67
2021/08/10 03:31:44;;;;;;;4.80;2.80;;;;;;;15.13;71.93;99086.00;3608723;39;20392;-68
2021/08/10 03:34:17;;;;;;;5.68;2.67;;;;;;;15.19;71.84;99081.69;3608654;39;20087;-68
2021/08/10 03:36:49;;;;;;;5.68;3.00;;;;;;;15.16;71.59;99090.91;3608346;39;20293;-68
2021/08/10 03:39:18;;;;;;;4.55;3.10;;;;;;;15.13;71.98;99098.50;3610877;39;20055;-68
2021/08/10 03:41:47;;;;;;;8.73;3.10;;;;;;;15.14;72.02;99098.28;3612885;39;20100;-69
2021/08/10 03:44:16;;;;;;;2.92;2.30;;;;;;;15.17;71.70;99095.19;3610161;39;20057;-69
2021/08/10 03:46:44;;;;;;;5.00;2.30;;;;;;;15.19;71.86;99097.66;3611262;39;20476;-68
2021/08/10 03:49:16;;;;;;;5.05;2.72;;;;;;;15.23;71.79;99098.88;3611388;39;20135;-67
2021/08/10 03:51:46;;;;;;;6.68;2.85;;;;;;;15.17;71.97;99102.38;3612535;39;20047;-67
2021/08/10 03:54:14;;;;;;;5.10;3.03;;;;;;;15.01;72.06;99099.19;3612535;39;20039;-67
2021/08/10 03:56:46;;;;;;;4.95;3.00;;;;;;;14.89;72.38;99102.75;3612580;39;20078;-67
2021/08/10 03:59:19;;;;;;;4.57;2.55;;;;;;;14.85;72.82;99097.84;3613147;39;20052;-67
2021/08/10 04:01:54;;;;;;;5.03;2.42;;;;;;;14.94;73.01;99106.41;3613544;39;20020;-67
2021/08/10 04:04:25;;;;;;;5.75;3.22;;;;;;;15.00;72.57;99099.41;3611846;39;20298;-67
2021/08/10 04:07:03;;;;;;;4.32;2.97;;;;;;;15.09;72.37;99109.59;3613386;39;20054;-67
2021/08/10 04:09:33;;;;;;;5.95;2.90;;;;;;;15.15;72.57;99107.13;3612798;39;20052;-67
2021/08/10 04:12:04;;;;;;;5.53;2.92;;;;;;;15.15;72.12;99102.59;3612413;39;20405;-68
2021/08/10 04:14:35;;;;;;;6.38;2.70;;;;;;;15.18;71.93;99115.47;3612156;39;20043;-67
2021/08/10 04:17:07;;;;;;;4.45;2.72;;;;;;;15.19;72.23;99106.47;3611959;39;20079;-67
2021/08/10 04:19:45;;;;;;;4.85;3.00;;;;;;;15.12;72.31;99119.00;3614252;39;20059;-67
2021/08/10 04:22:17;;;;;;;5.15;3.40;;;;;;;15.14;72.46;99121.44;3612365;39;20054;-68
2021/08/10 04:24:46;;;;;;;6.20;3.40;;;;;;;15.15;72.26;99121.25;3613316;39;20052;-68
2021/08/10 04:27:15;;;;;;;4.15;3.20;;;;;;;15.10;72.03;99126.38;3613967;39;20044;-70
2021/08/10 04:29:46;;;;;;;6.78;4.47;;;;;;;15.03;72.94;99121.09;3613735;39;20043;-67
2021/08/10 04:32:14;;;;;;;5.63;2.90;;;;;;;15.04;73.23;99133.38;3613019;39;20075;-67
2021/08/10 04:34:44;;;;;;;6.00;3.30;;;;;;;15.08;72.75;99137.25;3612923;39;20058;-68
2021/08/10 04:37:13;;;;;;;5.38;3.10;;;;;;;15.11;72.98;99134.16;3612563;39;20051;-67
2021/08/10 04:39:45;;;;;;;6.68;3.20;;;;;;;15.20;72.90;99133.91;3613187;39;20047;-67
2021/08/10 04:42:19;;;;;;;7.90;4.13;;;;;;;15.27;72.91;99116.88;3613418;39;20052;-67
2021/08/10 04:44:47;;;;;;;5.20;3.33;;;;;;;15.27;72.43;99114.19;3612819;39;20060;-67
2021/08/10 04:47:15;;;;;;;5.95;4.13;;;;;;;15.29;72.82;99117.44;3613830;39;20028;-68
2021/08/10 04:49:47;;;;;;;8.40;4.78;;;;;;;15.28;72.17;99117.69;3612802;39;20051;-67
2021/08/10 04:52:15;;;;;;;5.07;3.38;;;;;;;15.25;72.50;99116.25;3613436;39;20036;-67
2021/08/10 04:54:44;;;;;;;5.57;3.53;;;;;;;15.22;72.67;99113.19;3612970;39;20124;-67
2021/08/10 04:57:14;;;;;;;5.15;3.58;;;;;;;15.16;72.99;99108.75;3612296;39;20048;-68
2021/08/10 04:59:41;;;;;;;7.97;4.10;;;;;;;15.23;73.29;99105.00;3609774;39;20047;-68
2021/08/10 05:02:09;;;;;;;14.65;8.13;;;;;;;15.34;72.90;99106.16;3609794;39;20413;-68
2021/08/10 05:04:38;;;;;;;5.82;3.72;;;;;;;15.38;72.76;99102.03;3609619;39;20047;-68
2021/08/10 05:07:06;;;;;;;6.28;3.63;;;;;;;15.35;72.08;99094.47;3611466;39;20094;-68
2021/08/10 05:09:34;;;;;;;7.95;5.38;;;;;;;15.30;72.31;99096.97;3615753;39;20396;-68
2021/08/10 05:12:03;;;;;;;5.45;3.22;;;;;;;15.24;72.27;99098.66;3642482;22;20044;-73
2021/08/10 05:14:32;;;;;;;9.45;4.15;;;;;;;15.18;72.61;99096.81;3601461;40;20051;-72
2021/08/10 05:17:00;;;;;;;7.35;3.75;;;;;;;15.18;72.52;99096.81;3593614;40;20085;-72
2021/08/10 05:19:28;;;;;;;5.35;3.25;;;;;;;15.19;72.84;99095.81;3601197;40;20138;-72
2021/08/10 05:21:56;;;;;;;7.53;3.53;;;;;;;15.21;72.59;99096.41;3593751;40;20040;-73
2021/08/10 05:24:24;;;;;;;5.80;3.13;;;;;;;15.27;72.23;99098.22;3593502;40;20051;-72
2021/08/10 05:26:52;;;;;;;5.85;3.22;;;;;;;15.27;72.72;99105.41;3592716;40;20063;-72
2021/08/10 05:29:22;;;;;;;6.45;3.15;;;;;;;15.26;72.76;99123.19;3592413;40;20048;-73
2021/08/10 05:31:50;;;;;;;5.68;2.90;;;;;;;15.27;72.93;99119.53;3593001;40;20040;-72
2021/08/10 05:34:18;;;;;;;8.07;3.22;;;;;;;15.15;73.33;99123.91;3592923;40;20039;-72
2021/08/10 05:36:46;;;;;;;4.88;3.00;;;;;;;15.26;73.47;99123.19;3593975;40;20171;-72
2021/08/10 05:39:13;;;;;;;9.98;3.40;;;;;;;15.41;73.43;99130.09;3593011;40;20377;-72
2021/08/10 05:41:42;;;;;;;5.70;3.50;;;;;;;15.49;72.91;99113.84;3592206;40;20076;-72
2021/08/10 05:44:10;;;;;;;5.55;2.60;;;;;;;15.53;72.84;99104.38;3592713;40;20501;-72
2021/08/10 05:46:39;;;;;;;6.32;3.38;;;;;;;15.57;72.73;99098.38;3592118;40;20044;-72
2021/08/10 05:49:08;;;;;;;6.88;3.58;;;;;;;15.64;73.13;99108.19;3591560;40;20056;-72
2021/08/10 05:51:36;;;;;;;8.10;5.03;;;;;;;15.70;72.86;99110.81;3600719;39;20090;-72
2021/08/10 05:54:06;;;;;;;8.43;3.47;;;;;;;15.81;72.48;99109.31;3592000;40;20093;-73
2021/08/10 05:56:34;;;;;;;6.70;3.50;;;;;;;15.84;72.67;99100.88;3601153;40;20056;-72
2021/08/10 05:59:02;;;;;;;5.07;3.08;;;;;;;15.91;72.53;99084.78;3580567;40;20127;-72
2021/08/10 06:01:30;;;;;;;8.85;5.68;;;;;;;15.97;72.54;99075.94;3599549;39;20057;-71
2021/08/10 06:03:59;;;;;;;13.82;9.50;;;;;;;16.04;72.08;99055.31;3600647;39;20052;-71
2021/08/10 06:06:29;;;;;;;7.03;4.35;;;;;;;16.07;71.75;99053.03;3601568;40;20060;-73
2021/08/10 06:08:57;;;;;;;8.10;5.53;;;;;;;16.10;71.78;99036.59;3600956;40;20058;-73
2021/08/10 06:11:25;;;;;;;7.93;5.78;;;;;;;16.12;71.75;99022.22;3592470;39;20094;-73
2021/08/10 06:13:53;;;;;;;8.13;7.20;;;;;;;16.12;71.30;99015.03;3601294;40;20044;-72
2021/08/10 06:16:23;;;;;;;11.10;9.68;;;;;;;16.13;71.30;99003.34;3601590;40;20020;-73
2021/08/10 06:18:53;;;;;;;7.88;5.15;;;;;;;16.18;71.32;99000.00;3600911;40;20058;-73
2021/08/10 06:21:26;;;;;;;7.35;3.65;;;;;;;16.23;70.99;99016.94;3601148;39;20094;-73
2021/08/10 06:23:54;;;;;;;6.15;3.60;;;;;;;16.18;70.75;99029.34;3601157;40;20048;-72
2021/08/10 06:26:22;;;;;;;5.80;3.92;;;;;;;16.09;71.05;99074.97;3601442;40;20052;-73
2021/08/10 06:28:50;;;;;;;5.20;3.15;;;;;;;16.14;71.60;99097.50;3595418;40;20051;-73
2021/08/10 06:31:18;;;;;;;6.05;3.28;;;;;;;16.15;72.23;99107.13;3594333;40;20029;-72
2021/08/10 06:33:47;;;;;;;5.95;3.20;;;;;;;16.22;71.86;99107.88;3603196;40;20160;-72
2021/08/10 06:36:22;;;;;;;8.13;3.20;;;;;;;16.32;71.64;99100.16;3593046;40;20088;-72
2021/08/10 06:38:51;;;;;;;6.35;3.00;;;;;;;16.20;71.83;99094.75;3579594;40;20143;-72
2021/08/10 06:41:21;;;;;;;6.22;3.80;;;;;;;16.16;71.92;99108.75;3559828;40;20050;-72
2021/08/10 06:44:07;;;;;;;6.03;3.35;;;;;;;16.24;72.42;99127.94;3579574;40;20035;-72
2021/08/10 06:46:38;;;;;;;9.00;3.35;;;;;;;16.26;72.03;99117.88;3550434;40;20054;-73
2021/08/10 06:49:10;;;;;;;4.20;3.03;;;;;;;16.26;71.88;99119.72;3571654;40;20048;-73
2021/08/10 06:51:38;;;;;;;5.68;3.03;;;;;;;16.27;71.95;99135.50;3582111;40;20099;-71
2021/08/10 06:54:12;;;;;;;5.53;4.07;;;;;;;16.34;71.95;99125.59;3562488;40;20052;-72
2021/08/10 06:56:47;;;;;;;5.68;3.17;;;;;;;16.44;71.80;99126.91;3562896;40;20062;-72
2021/08/10 06:59:18;;;;;;;5.20;3.22;;;;;;;16.53;71.67;99131.75;3552149;40;20089;-72
2021/08/10 07:01:47;;;;;;;8.15;3.90;;;;;;;16.56;71.15;99144.63;3551850;40;20400;-72
2021/08/10 07:04:15;;;;;;;4.63;3.53;;;;;;;16.55;71.16;99148.34;3542493;40;20033;-72
2021/08/10 07:06:43;;;;;;;5.55;3.20;;;;;;;16.62;71.22;99140.28;3554008;40;20034;-72
2021/08/10 07:09:13;;;;;;;5.50;3.47;;;;;;;16.75;71.09;99147.34;3552685;40;20039;-72
2021/08/10 07:11:47;;;;;;;4.30;2.90;;;;;;;16.92;70.46;99144.84;3535888;40;20048;-72
2021/08/10 07:14:15;;;;;;;5.00;3.38;;;;;;;17.08;70.62;99138.88;3529685;40;20023;-71
2021/08/10 07:16:46;;;;;;;5.43;3.50;;;;;;;17.19;69.73;99139.97;3557096;40;20039;-72
2021/08/10 07:19:15;;;;;;;9.02;4.28;;;;;;;17.29;70.34;99140.22;3557020;40;20033;-72
2021/08/10 07:21:46;;;;;;;3.42;2.90;;;;;;;17.26;69.43;99130.00;3557141;40;20038;-72
2021/08/10 07:24:22;;;;;;;5.43;3.63;;;;;;;17.22;70.07;99139.50;3548318;40;20034;-74
2021/08/10 07:26:53;;;;;;;6.18;3.67;;;;;;;17.26;70.18;99136.16;3549378;40;20435;-72
2021/08/10 07:29:28;;;;;;;7.50;4.47;;;;;;;17.39;69.91;99129.81;3560047;40;20033;-73
2021/08/10 07:31:58;;;;;;;5.55;4.00;;;;;;;17.50;69.75;99122.84;3587960;40;20025;-72
2021/08/10 07:34:26;;;;;;;7.57;4.13;;;;;;;17.57;69.54;99127.06;3597025;40;20125;-73
2021/08/10 07:37:15;;;;;;;6.80;4.20;;;;;;;17.68;69.25;99128.13;3596991;40;20067;-73
2021/08/10 07:39:44;;;;;;;6.65;4.00;;;;;;;17.74;68.91;99123.72;3595012;40;20025;-73
2021/08/10 07:42:17;;;;;;;7.82;3.78;;;;;;;17.82;68.64;99124.22;3594131;40;20031;-72
2021/08/10 07:44:45;;;;;;;7.95;3.33;;;;;;;17.91;68.68;99124.66;3593285;40;20025;-73
2021/08/10 07:47:13;;;;;;;6.50;3.85;;;;;;;17.94;68.05;99118.06;3601093;40;20054;-73
2021/08/10 07:49:42;;;;;;;13.15;10.60;;;;;;;17.93;67.89;99117.25;3593457;40;20033;-73
2021/08/10 07:52:10;;;;;;;24.50;18.58;;;;;;;18.05;67.90;99119.91;3592552;40;20060;-72
2021/08/10 07:54:39;;;;;;;10.15;5.53;;;;;;;18.11;67.62;99118.97;3601415;40;20059;-72
2021/08/10 07:57:09;;;;;;;7.78;4.55;;;;;;;18.24;67.42;99118.72;3602353;40;20048;-72
2021/08/10 07:59:37;;;;;;;10.43;6.28;;;;;;;18.35;67.34;99114.41;3602429;40;20027;-73
2021/08/10 08:02:05;;;;;;;6.30;4.22;;;;;;;18.50;66.76;99109.38;3593517;40;20068;-73
2021/08/10 08:04:34;;;;;;;8.48;4.57;;;;;;;18.61;65.83;99097.00;3602504;40;20474;-73
2021/08/10 08:07:04;;;;;;;8.32;4.38;;;;;;;18.70;65.55;99100.97;3602601;40;20036;-72
2021/08/10 08:09:31;;;;;;;5.53;3.28;;;;;;;18.67;64.68;99106.78;3582310;40;20060;-72
2021/08/10 08:11:59;;;;;;;4.82;3.30;;;;;;;18.61;64.99;99107.72;3592684;40;20068;-73
2021/08/10 08:14:30;;;;;;;3.42;2.78;;;;;;;18.76;65.27;99110.72;3602264;40;20044;-72
2021/08/10 08:17:00;;;;;;;6.78;4.30;;;;;;;19.06;63.82;99115.03;3602254;40;20048;-72
2021/08/10 08:19:29;;;;;;;6.18;4.57;;;;;;;19.07;63.86;99102.47;3601560;40;20087;-72
2021/08/10 08:21:59;;;;;;;7.85;3.90;;;;;;;19.11;63.97;99117.81;3601591;39;20089;-71
2021/08/10 08:24:27;;;;;;;8.45;4.57;;;;;;;19.11;63.28;99123.19;3602105;40;20083;-72
2021/08/10 08:26:55;;;;;;;4.60;3.05;;;;;;;19.08;63.66;99115.63;3601825;39;20477;-72
2021/08/10 08:29:23;;;;;;;3.53;2.95;;;;;;;19.10;63.67;99118.84;3593703;40;20079;-72
2021/08/10 08:31:52;;;;;;;4.32;2.92;;;;;;;19.31;63.10;99109.34;3593083;40;20126;-72
2021/08/10 08:34:26;;;;;;;8.02;4.22;;;;;;;19.57;62.62;99113.25;3592924;40;20354;-72
2021/08/10 08:36:55;;;;;;;6.18;3.28;;;;;;;19.64;62.38;99110.44;3601243;40;20056;-72
2021/08/10 08:39:23;;;;;;;6.43;3.10;;;;;;;19.74;62.02;99105.22;3601907;40;20082;-74
2021/08/10 08:41:51;;;;;;;5.10;2.28;;;;;;;19.79;61.81;99107.97;3604519;39;20041;-73
2021/08/10 08:44:19;;;;;;;8.13;2.97;;;;;;;19.91;62.09;99108.69;3605665;40;20032;-72
2021/08/10 08:46:48;;;;;;;7.30;4.65;;;;;;;20.04;61.27;99105.69;3604096;40;20069;-72
2021/08/10 08:49:22;;;;;;;6.90;2.92;;;;;;;20.14;60.51;99102.31;3601336;40;20046;-73
2021/08/10 08:51:50;;;;;;;5.10;2.53;;;;;;;20.15;59.55;99109.31;3601524;39;20028;-72
2021/08/10 08:54:24;;;;;;;4.28;1.95;;;;;;;20.09;59.38;99113.00;3600987;40;20094;-72
2021/08/10 08:56:52;;;;;;;5.07;2.50;;;;;;;20.10;59.42;99122.66;3591003;40;20035;-73
2021/08/10 08:59:21;;;;;;;5.90;2.60;;;;;;;20.11;59.54;99118.91;3593064;40;20016;-73
2021/08/10 09:01:51;;;;;;;5.70;2.30;;;;;;;20.07;59.70;99125.03;3582894;40;20367;-73
2021/08/10 09:04:22;;;;;;;4.97;2.38;;;;;;;20.07;58.94;99122.34;3581140;40;20069;-72
2021/08/10 09:06:57;;;;;;;6.88;2.97;;;;;;;20.29;58.92;99128.56;3582496;40;20095;-73
2021/08/10 09:09:27;;;;;;;6.78;2.75;;;;;;;20.34;58.67;99123.25;3590705;40;20025;-73
2021/08/10 09:12:17;;;;;;;4.72;2.40;;;;;;;20.42;58.55;99116.66;3582503;40;20393;-71
2021/08/10 09:14:52;;;;;;;5.38;3.70;;;;;;;20.51;58.44;99117.88;3582873;40;20056;-73
2021/08/10 09:17:29;;;;;;;6.90;2.63;;;;;;;20.51;57.71;99116.00;3590625;40;20047;-72
2021/08/10 09:20:04;;;;;;;5.78;2.90;;;;;;;20.57;57.68;99110.69;3578916;40;20045;-70
2021/08/10 09:22:42;;;;;;;6.55;3.17;;;;;;;20.71;57.15;99112.75;3576865;40;20037;-72
2021/08/10 09:25:25;;;;;;;5.22;2.40;;;;;;;20.89;56.64;99113.47;3570526;40;20034;-73
2021/08/10 09:28:04;;;;;;;6.53;2.83;;;;;;;20.97;56.98;99103.06;3562580;40;20398;-72
2021/08/10 09:30:34;;;;;;;6.20;2.90;;;;;;;21.12;56.32;99101.63;3562159;40;20037;-71
2021/08/10 09:33:03;;;;;;;5.65;2.53;;;;;;;21.25;55.61;99104.69;3588709;40;20069;-71
2021/08/10 09:35:38;;;;;;;4.53;2.78;;;;;;;21.40;55.53;99105.94;3600594;40;20051;-72
2021/08/10 09:38:13;;;;;;;5.88;2.45;;;;;;;21.48;55.20;99106.28;3590135;40;20383;-72
2021/08/10 09:40:43;;;;;;;6.30;3.22;;;;;;;21.63;54.38;99104.78;3599901;40;20069;-72
2021/08/10 09:43:29;;;;;;;6.85;2.33;;;;;;;21.70;53.97;99100.78;3591305;40;20076;-72
2021/08/10 09:46:23;;;;;;;4.13;2.05;;;;;;;21.64;53.77;99111.78;3599342;40;20048;-72
2021/08/10 09:48:55;;;;;;;3.30;2.08;;;;;;;21.44;53.88;99109.75;3588681;40;20031;-71
2021/08/10 09:51:28;;;;;;;4.97;2.10;;;;;;;21.35;54.01;99108.56;3599231;40;20102;-71
2021/08/10 09:53:59;;;;;;;2.75;1.98;;;;;;;21.33;54.07;99108.84;3590541;40;20056;-71
2021/08/10 09:56:50;;;;;;;5.32;2.17;;;;;;;21.35;54.20;99104.03;3590614;40;20271;-72
2021/08/10 09:59:20;;;;;;;4.97;2.05;;;;;;;21.36;53.78;99107.53;3599253;40;20305;-72
2021/08/10 10:01:51;;;;;;;5.47;2.13;;;;;;;21.40;53.81;99108.63;3591309;40;20048;-71
2021/08/10 10:04:25;;;;;;;3.63;1.92;;;;;;;21.51;53.89;99110.31;3590246;40;20044;-71
2021/08/10 10:07:14;;;;;;;2.83;2.08;;;;;;;21.72;53.75;99100.56;3591749;40;20041;-72
2021/08/10 10:09:49;;;;;;;3.95;1.90;;;;;;;21.69;53.14;99101.06;3590788;40;20045;-72
2021/08/10 10:12:22;;;;;;;2.90;1.88;;;;;;;21.71;52.11;99101.59;3590878;40;20044;-72
2021/08/10 10:14:55;;;;;;;4.53;2.35;;;;;;;21.77;51.00;99101.41;3591226;40;20028;-71
2021/08/10 10:17:24;;;;;;;5.32;1.80;;;;;;;21.73;49.72;99107.56;3590917;40;20076;-72
2021/08/10 10:19:54;;;;;;;4.57;1.85;;;;;;;21.79;49.64;99103.00;3591281;40;20032;-73
2021/08/10 10:22:31;;;;;;;3.80;1.63;;;;;;;21.78;49.85;99102.19;3591588;40;20049;-73
2021/08/10 10:25:02;;;;;;;4.57;2.08;;;;;;;21.90;49.26;99097.44;3591619;40;20257;-72
2021/08/10 10:27:34;;;;;;;5.07;2.15;;;;;;;22.09;48.93;99099.72;3592262;40;20044;-72
2021/08/10 10:30:04;;;;;;;5.60;2.42;;;;;;;22.29;47.83;99097.16;3592255;40;20028;-72
2021/08/10 10:32:32;;;;;;;10.50;2.30;;;;;;;22.47;47.63;99103.97;3593902;40;20056;-72
2021/08/10 10:35:00;;;;;;;3.17;1.63;;;;;;;22.64;47.07;99101.06;3591611;40;20137;-72
2021/08/10 10:37:31;;;;;;;4.22;2.38;;;;;;;22.91;46.61;99104.44;3590653;40;20021;-71
2021/08/10 10:40:02;;;;;;;5.15;2.20;;;;;;;23.19;45.91;99105.84;3598310;40;20060;-72
2021/08/10 10:42:30;;;;;;;5.50;3.05;;;;;;;23.32;45.37;99103.69;3590990;40;20084;-71
2021/08/10 10:44:58;;;;;;;4.63;2.33;;;;;;;23.30;44.93;99087.75;3590113;40;20391;-71
2021/08/10 10:47:35;;;;;;;3.40;2.60;;;;;;;23.26;44.97;99102.06;3590903;40;20078;-71
2021/08/10 10:50:27;;;;;;;3.17;2.00;;;;;;;23.34;44.66;99102.31;3590573;40;20060;-71
2021/08/10 10:53:05;;;;;;;5.10;3.30;;;;;;;23.40;44.98;99095.88;3589689;40;20315;-72
2021/08/10 10:55:36;;;;;;;4.30;2.90;;;;;;;23.44;44.74;99099.66;3589774;40;20108;-71
2021/08/10 10:58:30;;;;;;;5.30;3.53;;;;;;;23.49;45.00;99098.84;3598589;40;20035;-71
2021/08/10 11:01:15;;;;;;;5.68;2.95;;;;;;;23.37;45.17;99092.91;3589588;40;20072;-73
2021/08/10 11:04:09;;;;;;;4.85;2.83;;;;;;;23.19;45.81;99088.84;3590009;40;20024;-71
2021/08/10 11:06:39;;;;;;;3.88;2.20;;;;;;;23.02;45.42;99089.06;3590796;40;20052;-72
2021/08/10 11:09:08;;;;;;;3.28;2.08;;;;;;;22.78;46.51;99093.28;3590651;40;20110;-73
2021/08/10 11:11:50;;;;;;;5.68;3.08;;;;;;;22.83;46.59;99093.31;3591279;40;20036;-72
2021/08/10 11:14:57;;;;;;;2.78;2.45;;;;;;;23.03;45.80;99077.22;3589986;40;20048;-72
2021/08/10 11:17:25;;;;;;;4.22;2.22;;;;;;;23.06;45.89;99087.47;3589927;40;20286;-72
2021/08/10 11:19:53;;;;;;;4.90;2.42;;;;;;;23.01;45.82;99083.94;3589258;40;20338;-72
2021/08/10 11:22:23;;;;;;;3.72;2.83;;;;;;;23.16;45.91;99089.38;3589236;40;20051;-71
2021/08/10 11:24:54;;;;;;;5.15;2.47;;;;;;;23.39;45.03;99088.03;3590366;40;20028;-71
2021/08/10 11:27:38;;;;;;;2.80;2.53;;;;;;;23.57;44.69;99079.41;3597909;40;20049;-71
2021/08/10 11:30:09;;;;;;;6.07;3.03;;;;;;;23.72;43.88;99082.13;3590099;40;20040;-71
2021/08/10 11:32:39;;;;;;;6.57;2.75;;;;;;;23.72;44.20;99079.44;3590112;40;20059;-72
2021/08/10 11:35:39;;;;;;;3.85;2.80;;;;;;;23.97;43.81;99066.97;3589601;40;20067;-72
2021/08/10 11:38:13;;;;;;;3.90;2.70;;;;;;;24.12;43.33;99075.00;3557576;40;20046;-72
2021/08/10 11:41:00;;;;;;;4.03;2.97;;;;;;;24.24;43.05;99074.69;3584217;40;20067;-71
2021/08/10 11:43:36;;;;;;;6.30;2.70;;;;;;;24.35;42.77;99073.59;3597674;39;20063;-71
2021/08/10 11:46:05;;;;;;;5.28;2.58;;;;;;;24.56;42.90;99073.53;3590005;40;20040;-72
2021/08/10 11:48:43;;;;;;;6.03;3.20;;;;;;;24.65;41.62;99066.44;3589422;40;20097;-72
2021/08/10 11:51:19;;;;;;;3.63;2.80;;;;;;;24.75;41.25;99069.13;3588953;40;20056;-71
2021/08/10 11:53:47;;;;;;;4.68;3.17;;;;;;;24.67;41.36;99075.09;3589417;40;20056;-71
2021/08/10 11:56:28;;;;;;;3.00;2.70;;;;;;;24.67;41.00;99080.50;3589247;40;20048;-71